Time;durP1;ratioP1;P1;durP2;ratioP2;P2;SDS_P1;SDS_P2;PMS_P1;PMS_P2;Temp;Humidity;BMP_temperature;BMP_pressure;BME280_temperature;BME280_humidity;BME280_pressure;Samples;Min_cycle;Max_cycle;Signal;HPM_P1;HPM_P2
2023/01/20 00:00:41;;;;;;;53.30;29.80;;;;;;;1.62;89.10;99807.81;83368;1259;3011488;-76
2023/01/20 00:03:34;;;;;;;50.90;28.90;;;;;;;1.66;89.23;99815.34;82583;1259;3026424;-76
2023/01/20 00:06:05;;;;;;;58.10;31.00;;;;;;;1.68;89.27;99822.36;83891;1258;3012370;-77
2023/01/20 00:08:37;;;;;;;58.40;32.50;;;;;;;1.68;89.21;99823.40;82611;1259;3025667;-76
2023/01/20 00:11:09;;;;;;;54.30;29.60;;;;;;;1.69;89.16;99830.61;83888;1256;3011578;-76
2023/01/20 00:13:41;;;;;;;54.80;29.10;;;;;;;1.65;88.99;99834.09;82583;1259;3027481;-76
2023/01/20 00:16:12;;;;;;;53.00;28.80;;;;;;;1.62;88.97;99837.73;83899;1256;3011522;-76
2023/01/20 00:18:48;;;;;;;54.40;29.70;;;;;;;1.62;88.96;99843.40;82449;1262;3025730;-76
2023/01/20 00:21:21;;;;;;;56.30;30.90;;;;;;;1.61;88.99;99847.89;83321;1259;3011875;-74
2023/01/20 00:23:55;;;;;;;52.80;29.30;;;;;;;1.60;89.03;99849.10;83874;1254;3011541;-74
2023/01/20 00:26:29;;;;;;;53.70;29.40;;;;;;;1.58;89.11;99854.63;82616;1259;3025876;-74
2023/01/20 00:29:02;;;;;;;56.00;29.50;;;;;;;1.56;89.30;99857.05;83253;1269;3011766;-75
2023/01/20 00:31:35;;;;;;;51.30;27.00;;;;;;;1.57;89.22;99861.16;83926;1259;3013513;-74
2023/01/20 00:34:10;;;;;;;52.20;28.80;;;;;;;1.62;89.47;99862.83;82590;1256;3026588;-74
2023/01/20 00:36:44;;;;;;;55.40;29.70;;;;;;;1.67;89.52;99863.30;83329;1259;3011575;-76
2023/01/20 00:39:18;;;;;;;54.30;29.30;;;;;;;1.70;89.50;99870.83;83901;1257;3013084;-74
2023/01/20 00:41:51;;;;;;;53.40;30.10;;;;;;;1.69;89.21;99876.69;82572;1254;3025002;-74
2023/01/20 00:44:22;;;;;;;50.50;26.30;;;;;;;1.62;88.82;99880.89;83889;1256;3013079;-74
2023/01/20 00:46:55;;;;;;;53.50;27.60;;;;;;;1.57;88.85;99885.23;82533;1259;3025447;-74
2023/01/20 00:49:27;;;;;;;50.00;29.00;;;;;;;1.60;89.27;99885.20;83897;1259;3011535;-74
2023/01/20 00:52:03;;;;;;;55.50;28.20;;;;;;;1.65;89.34;99886.70;82460;1255;3026126;-74
2023/01/20 00:54:36;;;;;;;54.30;28.90;;;;;;;1.65;89.24;99895.13;83371;1256;3011621;-74
2023/01/20 00:57:07;;;;;;;54.00;29.00;;;;;;;1.64;89.10;99898.23;83877;1259;3011484;-74
2023/01/20 00:59:39;;;;;;;54.90;28.20;;;;;;;1.62;89.37;99897.73;82585;1259;3025683;-74
2023/01/20 01:02:15;;;;;;;52.10;26.80;;;;;;;1.61;89.12;99903.25;83898;1259;3011384;-73
2023/01/20 01:04:50;;;;;;;50.30;27.30;;;;;;;1.60;89.06;99900.16;82597;1267;3025421;-75
2023/01/20 01:07:22;;;;;;;51.20;28.20;;;;;;;1.57;88.84;99904.66;82461;1261;3026329;-76
2023/01/20 01:09:53;;;;;;;50.70;28.20;;;;;;;1.53;88.70;99902.27;83887;1259;3011551;-75
2023/01/20 01:12:26;;;;;;;52.00;27.80;;;;;;;1.51;88.68;99905.23;82594;1255;3027426;-75
2023/01/20 01:15:01;;;;;;;50.60;27.40;;;;;;;1.47;88.75;99904.58;83369;1259;3011377;-75
2023/01/20 01:17:32;;;;;;;45.90;25.90;;;;;;;1.43;88.80;99904.77;83891;1259;3011619;-75
2023/01/20 01:20:07;;;;;;;50.10;28.30;;;;;;;1.44;89.13;99905.29;82572;1258;3025813;-75
2023/01/20 01:22:38;;;;;;;50.50;26.80;;;;;;;1.43;89.09;99903.73;83907;1259;3013066;-76
2023/01/20 01:25:11;;;;;;;53.50;28.30;;;;;;;1.41;88.95;99908.74;82599;1259;3025776;-72
2023/01/20 01:27:42;;;;;;;49.70;28.00;;;;;;;1.39;89.05;99913.74;83908;1256;3011509;-75
2023/01/20 01:30:15;;;;;;;51.80;26.90;;;;;;;1.38;89.36;99916.50;82607;1267;3025151;-75
2023/01/20 01:32:46;;;;;;;51.70;26.30;;;;;;;1.41;89.59;99921.80;83779;1257;3011581;-74
2023/01/20 01:35:21;;;;;;;49.20;26.90;;;;;;;1.43;89.47;99921.45;82586;1257;3026826;-75
2023/01/20 01:37:59;;;;;;;48.70;27.10;;;;;;;1.44;89.31;99926.59;83351;1259;3011751;-74
2023/01/20 01:40:34;;;;;;;49.70;27.00;;;;;;;1.43;89.12;99925.40;82618;1257;3025991;-75
2023/01/20 01:43:18;;;;;;;52.00;27.20;;;;;;;1.43;89.34;99929.36;83333;1256;3011664;-75
2023/01/20 01:45:50;;;;;;;52.00;28.00;;;;;;;1.42;89.38;99927.98;82584;1259;3026176;-75
2023/01/20 01:48:21;;;;;;;51.20;27.50;;;;;;;1.41;89.45;99932.80;83871;1260;3011594;-74
2023/01/20 01:50:56;;;;;;;47.50;26.20;;;;;;;1.39;89.39;99935.74;82593;1259;3026324;-75
2023/01/20 01:53:28;;;;;;;52.40;27.50;;;;;;;1.39;89.38;99936.77;83887;1259;3011517;-75
2023/01/20 01:56:02;;;;;;;47.20;26.40;;;;;;;1.40;89.51;99931.96;82597;1254;3025953;-76
2023/01/20 01:58:36;;;;;;;53.50;27.40;;;;;;;1.42;89.60;99931.60;83329;1259;3011490;-76
2023/01/20 02:01:08;;;;;;;47.50;26.10;;;;;;;1.41;89.46;99931.27;83769;1270;3011411;-76
2023/01/20 02:03:44;;;;;;;52.80;27.40;;;;;;;1.38;89.42;99930.08;82557;1267;3025760;-76
2023/01/20 02:06:16;;;;;;;47.30;25.30;;;;;;;1.38;89.47;99931.27;82586;1257;3025940;-74
2023/01/20 02:08:47;;;;;;;49.50;25.60;;;;;;;1.38;89.29;99927.50;83740;1260;3011489;-75
2023/01/20 02:11:22;;;;;;;50.20;26.50;;;;;;;1.38;89.31;99924.06;82588;1269;3026023;-75
2023/01/20 02:13:56;;;;;;;50.30;29.20;;;;;;;1.37;89.31;99925.45;83329;1259;3011614;-75
2023/01/20 02:16:33;;;;;;;50.80;27.40;;;;;;;1.36;89.42;99927.00;83891;1259;3011651;-72
2023/01/20 02:19:20;;;;;;;49.40;26.80;;;;;;;1.34;89.51;99926.33;82500;1254;3026063;-73
2023/01/20 02:22:11;;;;;;;45.90;24.70;;;;;;;1.34;89.58;99928.05;82574;1259;3025496;-74
2023/01/20 02:25:16;;;;;;;45.70;24.90;;;;;;;1.34;89.50;99933.04;82571;1269;3024745;-75
2023/01/20 02:28:18;;;;;;;45.40;24.90;;;;;;;1.33;89.64;99941.98;82584;1254;3025749;-74
2023/01/20 02:31:17;;;;;;;48.50;25.40;;;;;;;1.34;89.69;99939.58;82605;1255;3025562;-75
2023/01/20 02:33:52;;;;;;;48.10;25.40;;;;;;;1.30;89.60;99936.15;82570;1267;3025947;-75
2023/01/20 02:36:32;;;;;;;45.30;24.30;;;;;;;1.29;89.53;99940.29;83366;1257;3013187;-74
2023/01/20 02:39:08;;;;;;;47.80;25.00;;;;;;;1.29;89.63;99941.48;82535;1259;3027085;-75
2023/01/20 02:41:48;;;;;;;49.90;26.70;;;;;;;1.32;89.67;99945.25;82598;1265;3024976;-72
2023/01/20 02:44:25;;;;;;;50.10;26.30;;;;;;;1.34;90.01;99943.70;82573;1256;3025441;-75
2023/01/20 02:47:03;;;;;;;54.70;26.40;;;;;;;1.36;89.81;99945.56;82547;1258;3026020;-76
2023/01/20 02:49:38;;;;;;;48.10;25.40;;;;;;;1.37;89.87;99946.75;82597;1259;3027351;-75
2023/01/20 02:52:16;;;;;;;47.00;24.90;;;;;;;1.41;89.81;99944.67;83327;1259;3013180;-76
2023/01/20 02:54:51;;;;;;;50.80;26.30;;;;;;;1.43;89.95;99942.59;82499;1256;3026365;-75
2023/01/20 02:57:28;;;;;;;47.00;24.90;;;;;;;1.46;89.92;99942.21;82549;1261;3026051;-75
2023/01/20 03:00:06;;;;;;;49.30;25.90;;;;;;;1.45;89.70;99943.08;82467;1260;3025507;-73
2023/01/20 03:02:39;;;;;;;47.90;24.40;;;;;;;1.40;89.53;99935.39;82562;1268;3026328;-74
2023/01/20 03:05:13;;;;;;;48.00;23.90;;;;;;;1.39;89.46;99935.05;83918;1268;3011505;-75
2023/01/20 03:07:47;;;;;;;48.70;24.80;;;;;;;1.40;89.66;99938.48;82583;1256;3025732;-75
2023/01/20 03:10:20;;;;;;;49.10;25.10;;;;;;;1.39;89.56;99938.16;83884;1269;3013186;-76
2023/01/20 03:12:56;;;;;;;53.40;27.40;;;;;;;1.37;89.51;99941.09;82575;1259;3025646;-75
2023/01/20 03:15:31;;;;;;;55.70;26.70;;;;;;;1.39;89.78;99944.86;83873;1259;3011611;-71
2023/01/20 03:18:03;;;;;;;54.00;26.30;;;;;;;1.38;89.63;99947.96;82561;1267;3025499;-73
2023/01/20 03:20:37;;;;;;;50.90;24.90;;;;;;;1.35;89.62;99950.05;83827;1269;3011876;-73
2023/01/20 03:23:10;;;;;;;52.50;25.20;;;;;;;1.35;89.69;99951.41;82562;1260;3024484;-74
2023/01/20 03:25:41;;;;;;;53.60;26.70;;;;;;;1.38;89.90;99950.53;83878;1267;3011477;-74
2023/01/20 03:28:15;;;;;;;55.80;27.50;;;;;;;1.39;89.87;99951.04;82559;1262;3024778;-74
2023/01/20 03:30:48;;;;;;;49.00;24.40;;;;;;;1.38;89.68;99951.39;83865;1260;3011549;-75
2023/01/20 03:33:20;;;;;;;50.50;25.10;;;;;;;1.36;89.67;99953.12;82448;1257;3026435;-73
2023/01/20 03:35:51;;;;;;;50.10;24.80;;;;;;;1.39;89.90;99956.73;83697;1262;3013207;-74
2023/01/20 03:38:26;;;;;;;50.70;25.60;;;;;;;1.43;89.94;99960.48;82544;1258;3025968;-74
2023/01/20 03:41:07;;;;;;;51.60;26.10;;;;;;;1.42;89.69;99964.95;83251;1257;3011544;-74
2023/01/20 03:43:43;;;;;;;54.40;25.90;;;;;;;1.41;89.99;99966.14;82469;1258;3026712;-72
2023/01/20 03:46:22;;;;;;;56.70;26.70;;;;;;;1.43;90.20;99968.53;82509;1260;3025935;-74
2023/01/20 03:49:02;;;;;;;52.90;25.80;;;;;;;1.44;90.06;99971.27;82498;1267;3026276;-75
2023/01/20 03:51:41;;;;;;;55.80;29.30;;;;;;;1.45;89.96;99974.55;82503;1267;3025875;-76
2023/01/20 03:54:17;;;;;;;54.50;26.80;;;;;;;1.47;90.25;99977.63;82463;1260;3026491;-74
2023/01/20 03:56:53;;;;;;;56.20;27.90;;;;;;;1.48;90.03;99988.96;82500;1257;3027543;-74
2023/01/20 03:59:26;;;;;;;54.00;25.80;;;;;;;1.48;89.96;99990.67;82480;1269;3027700;-75
2023/01/20 04:01:57;;;;;;;53.30;26.00;;;;;;;1.46;89.96;99988.96;83669;1271;3013694;-74
2023/01/20 04:04:29;;;;;;;55.20;27.70;;;;;;;1.49;89.83;99999.09;82507;1269;3026260;-75
2023/01/20 04:07:00;;;;;;;54.00;26.20;;;;;;;1.53;90.27;100014.36;83801;1269;3011416;-74
2023/01/20 04:09:50;;;;;;;52.30;26.20;;;;;;;1.53;89.99;100022.44;82438;1258;3025459;-74
2023/01/20 04:12:22;;;;;;;55.60;25.40;;;;;;;1.52;89.94;100023.48;82533;1260;3027728;-75
2023/01/20 04:14:55;;;;;;;54.00;25.20;;;;;;;1.56;90.14;100028.44;83675;1262;3011435;-76
2023/01/20 04:17:31;;;;;;;55.60;27.10;;;;;;;1.56;89.85;100032.56;82492;1255;3026278;-75
2023/01/20 04:20:10;;;;;;;54.40;27.50;;;;;;;1.56;89.97;100037.90;83827;1269;3011566;-74
2023/01/20 04:22:48;;;;;;;52.00;27.60;;;;;;;1.55;89.93;100037.38;82476;1262;3026329;-73
2023/01/20 04:25:26;;;;;;;60.00;28.10;;;;;;;1.54;89.82;100042.02;82492;1259;3025561;-73
2023/01/20 04:27:58;;;;;;;53.00;25.00;;;;;;;1.53;89.91;100048.23;82479;1257;3026573;-74
2023/01/20 04:30:29;;;;;;;52.60;25.80;;;;;;;1.54;89.78;100048.73;83844;1269;3011332;-74
2023/01/20 04:33:04;;;;;;;51.90;26.10;;;;;;;1.56;89.90;100045.98;82484;1269;3025501;-77
2023/01/20 04:35:40;;;;;;;54.70;26.70;;;;;;;1.57;89.90;100045.79;83243;1262;3011591;-76
2023/01/20 04:38:14;;;;;;;51.60;25.50;;;;;;;1.58;89.96;100050.09;83257;1269;3011304;-75
2023/01/20 04:40:46;;;;;;;57.70;27.00;;;;;;;1.56;89.79;100050.61;83813;1258;3011458;-75
2023/01/20 04:43:19;;;;;;;54.90;24.00;;;;;;;1.54;89.85;100057.84;82496;1260;3026428;-75
2023/01/20 04:45:51;;;;;;;52.80;25.20;;;;;;;1.54;89.86;100058.54;83753;1269;3011450;-74
2023/01/20 04:48:27;;;;;;;51.30;24.60;;;;;;;1.55;89.94;100065.41;82507;1256;3026750;-73
2023/01/20 04:51:06;;;;;;;53.80;26.50;;;;;;;1.54;89.75;100073.66;82500;1269;3024625;-75
2023/01/20 04:53:38;;;;;;;56.10;25.70;;;;;;;1.54;89.92;100080.20;82505;1267;3025916;-74
2023/01/20 04:56:13;;;;;;;49.00;23.70;;;;;;;1.52;89.86;100085.02;83830;1257;3012729;-74
2023/01/20 04:58:47;;;;;;;52.90;25.20;;;;;;;1.49;89.89;100091.23;82403;1269;3025691;-75
2023/01/20 05:01:18;;;;;;;55.90;25.20;;;;;;;1.49;89.95;100095.35;83759;1263;3011561;-76
2023/01/20 05:03:51;;;;;;;51.30;23.20;;;;;;;1.50;90.05;100102.05;82484;1256;3025614;-76
2023/01/20 05:06:22;;;;;;;54.00;25.10;;;;;;;1.55;90.30;100110.79;83752;1257;3011580;-76
2023/01/20 05:08:54;;;;;;;56.10;27.00;;;;;;;1.60;90.32;100113.51;82471;1270;3025162;-76
2023/01/20 05:11:30;;;;;;;56.20;25.70;;;;;;;1.59;90.26;100112.66;83265;1260;3011869;-75
2023/01/20 05:14:02;;;;;;;48.10;22.60;;;;;;;1.56;90.07;100113.20;83809;1260;3011610;-74
2023/01/20 05:16:34;;;;;;;54.10;25.10;;;;;;;1.54;90.16;100112.34;82541;1269;3025985;-75
2023/01/20 05:19:11;;;;;;;51.40;24.30;;;;;;;1.55;90.09;100115.61;83802;1259;3011521;-75
2023/01/20 05:21:44;;;;;;;51.00;25.00;;;;;;;1.52;90.00;100118.54;82356;1256;3028074;-76
2023/01/20 05:24:16;;;;;;;54.20;25.70;;;;;;;1.54;90.35;100122.15;83815;1261;3011867;-74
2023/01/20 05:26:48;;;;;;;59.80;26.90;;;;;;;1.57;90.50;100117.48;82512;1269;3025958;-71
2023/01/20 05:29:24;;;;;;;62.70;26.60;;;;;;;1.55;90.21;100116.46;83778;1258;3011321;-73
2023/01/20 05:31:58;;;;;;;56.80;25.10;;;;;;;1.52;90.07;100122.67;82488;1258;3025668;-73
2023/01/20 05:34:29;;;;;;;54.30;25.60;;;;;;;1.55;90.36;100130.38;83842;1278;3012990;-75
2023/01/20 05:37:04;;;;;;;54.50;26.70;;;;;;;1.59;90.49;100133.98;82485;1257;3026629;-75
2023/01/20 05:39:38;;;;;;;57.80;26.60;;;;;;;1.61;90.37;100135.52;83266;1260;3011563;-73
2023/01/20 05:42:09;;;;;;;55.80;25.30;;;;;;;1.60;90.41;100140.50;83798;1260;3011653;-71
2023/01/20 05:44:41;;;;;;;54.40;25.90;;;;;;;1.61;90.37;100147.37;82549;1260;3026221;-73
2023/01/20 05:47:12;;;;;;;51.50;24.40;;;;;;;1.63;90.43;100148.40;83778;1261;3011609;-73
2023/01/20 05:49:45;;;;;;;58.80;28.10;;;;;;;1.64;90.34;100145.98;82546;1261;3025155;-72
2023/01/20 05:52:15;;;;;;;60.20;28.10;;;;;;;1.67;90.53;100140.13;83780;1269;3013373;-73
2023/01/20 05:54:48;;;;;;;61.40;28.70;;;;;;;1.66;90.36;100147.87;82505;1261;3026016;-75
2023/01/20 05:57:19;;;;;;;60.30;26.70;;;;;;;1.65;90.37;100160.44;83776;1258;3011559;-74
2023/01/20 05:59:51;;;;;;;58.10;26.40;;;;;;;1.64;90.50;100171.09;82351;1262;3026432;-73
2023/01/20 06:02:23;;;;;;;58.40;26.80;;;;;;;1.67;90.34;100181.22;83793;1256;3011582;-74
2023/01/20 06:04:55;;;;;;;60.90;27.90;;;;;;;1.69;90.66;100191.88;82494;1260;3027459;-75
2023/01/20 06:07:26;;;;;;;64.50;30.50;;;;;;;1.75;90.89;100206.80;83797;1269;3011550;-75
2023/01/20 06:09:58;;;;;;;70.60;29.30;;;;;;;1.75;90.60;100219.52;82499;1269;3025497;-75
2023/01/20 06:12:31;;;;;;;61.70;26.80;;;;;;;1.74;90.59;100227.96;83790;1267;3011401;-75
2023/01/20 06:15:07;;;;;;;61.40;28.40;;;;;;;1.71;90.41;100232.27;82465;1267;3025757;-73
2023/01/20 06:17:44;;;;;;;65.60;29.20;;;;;;;1.71;90.46;100231.59;82511;1260;3026123;-71
2023/01/20 06:20:19;;;;;;;71.50;31.90;;;;;;;1.70;90.31;100233.65;83243;1278;3011539;-73
2023/01/20 06:22:54;;;;;;;77.60;34.00;;;;;;;1.70;90.66;100237.09;83801;1258;3011618;-73
2023/01/20 06:25:31;;;;;;;61.50;27.60;;;;;;;1.73;90.63;100255.30;82506;1268;3025034;-74
2023/01/20 06:28:03;;;;;;;58.40;28.60;;;;;;;1.71;90.37;100258.94;82488;1260;3026343;-74
2023/01/20 06:30:35;;;;;;;57.20;27.50;;;;;;;1.71;90.47;100263.39;83835;1268;3011577;-72
2023/01/20 06:33:10;;;;;;;59.40;28.70;;;;;;;1.70;90.42;100263.41;82481;1260;3024936;-75
2023/01/20 06:35:44;;;;;;;67.80;30.20;;;;;;;1.70;90.51;100270.80;83238;1260;3011592;-74
2023/01/20 06:38:15;;;;;;;74.40;31.60;;;;;;;1.68;90.45;100267.89;83671;1264;3011211;-74
2023/01/20 06:40:48;;;;;;;65.90;30.20;;;;;;;1.65;90.47;100266.00;82511;1278;3026212;-73
2023/01/20 06:43:31;;;;;;;62.30;28.00;;;;;;;1.69;90.75;100266.17;82432;1262;3026034;-73
2023/01/20 06:46:04;;;;;;;62.80;29.10;;;;;;;1.71;90.51;100269.23;82511;1268;3026255;-73
2023/01/20 06:48:38;;;;;;;62.70;27.80;;;;;;;1.71;90.60;100269.94;83829;1257;3011347;-73
2023/01/20 06:51:13;;;;;;;65.20;28.90;;;;;;;1.73;90.77;100273.04;82438;1268;3025711;-73
2023/01/20 06:53:44;;;;;;;66.70;28.30;;;;;;;1.76;90.75;100271.46;83679;1257;3011628;-73
2023/01/20 06:56:16;;;;;;;60.80;26.10;;;;;;;1.77;90.80;100275.25;82503;1261;3025772;-74
2023/01/20 06:58:48;;;;;;;61.00;27.70;;;;;;;1.78;90.62;100281.95;83790;1261;3013324;-72
2023/01/20 07:01:23;;;;;;;60.00;27.90;;;;;;;1.81;90.91;100290.88;82467;1256;3025242;-75
2023/01/20 07:03:56;;;;;;;61.70;26.80;;;;;;;1.84;90.87;100291.73;82519;1258;3025609;-74
2023/01/20 07:06:30;;;;;;;63.40;25.10;;;;;;;1.87;90.87;100289.13;83723;1271;3011250;-75
2023/01/20 07:09:21;;;;;;;59.20;26.40;;;;;;;1.86;90.84;100285.54;82546;1257;3026236;-75
2023/01/20 07:11:54;;;;;;;58.50;25.90;;;;;;;1.88;90.95;100289.65;82433;1264;3026060;-77
2023/01/20 07:14:26;;;;;;;58.80;27.20;;;;;;;1.90;90.55;100299.27;83813;1256;3013718;-74
2023/01/20 07:17:00;;;;;;;63.10;28.70;;;;;;;1.92;90.76;100305.63;82519;1271;3025680;-74
2023/01/20 07:19:34;;;;;;;64.90;28.20;;;;;;;1.94;90.84;100307.17;83295;1261;3011514;-72
2023/01/20 07:22:07;;;;;;;67.90;31.50;;;;;;;1.94;90.64;100308.55;83822;1257;3011581;-73
2023/01/20 07:24:39;;;;;;;55.40;27.00;;;;;;;1.91;90.53;100317.16;82499;1263;3024996;-74
2023/01/20 07:27:11;;;;;;;64.70;27.90;;;;;;;1.90;90.68;100320.78;83816;1261;3011742;-74
2023/01/20 07:29:48;;;;;;;57.80;26.60;;;;;;;1.91;90.73;100322.49;82536;1270;3025306;-75
2023/01/20 07:32:26;;;;;;;56.10;25.30;;;;;;;1.92;90.83;100324.22;82525;1260;3025553;-74
2023/01/20 07:34:59;;;;;;;60.90;28.30;;;;;;;1.94;90.92;100318.88;82534;1264;3025973;-73
2023/01/20 07:37:30;;;;;;;58.20;26.20;;;;;;;1.95;90.93;100319.55;83869;1260;3011543;-73
2023/01/20 07:40:06;;;;;;;54.20;25.50;;;;;;;1.98;90.71;100322.64;82166;1258;3025565;-73
2023/01/20 07:42:42;;;;;;;59.90;28.70;;;;;;;1.99;90.61;100315.23;82573;1260;3026292;-74
2023/01/20 07:45:20;;;;;;;52.50;24.40;;;;;;;2.01;90.58;100317.63;82525;1260;3026140;-75
2023/01/20 07:47:58;;;;;;;56.50;25.80;;;;;;;2.02;90.66;100318.32;82521;1269;3025630;-75
2023/01/20 07:50:30;;;;;;;57.20;25.70;;;;;;;2.04;90.71;100321.41;83863;1269;3011559;-73
2023/01/20 07:53:03;;;;;;;52.60;24.00;;;;;;;2.07;90.79;100321.74;82402;1261;3026566;-76
2023/01/20 07:55:38;;;;;;;51.70;23.40;;;;;;;2.06;90.54;100322.27;83773;1260;3011469;-76
2023/01/20 07:58:10;;;;;;;55.40;23.50;;;;;;;2.05;90.49;100324.16;82549;1260;3025843;-74
2023/01/20 08:00:51;;;;;;;50.70;24.00;;;;;;;2.06;90.40;100327.26;83320;1269;3011596;-75
2023/01/20 08:03:26;;;;;;;57.20;24.80;;;;;;;2.03;90.27;100332.09;82423;1260;3026355;-75
2023/01/20 08:06:16;;;;;;;56.30;24.20;;;;;;;2.04;90.40;100333.80;83196;1261;3011489;-72
2023/01/20 08:08:57;;;;;;;54.90;24.00;;;;;;;2.03;90.51;100331.40;82586;1263;3025758;-75
2023/01/20 08:11:37;;;;;;;57.50;27.40;;;;;;;2.06;90.26;100331.89;82530;1261;3026560;-73
2023/01/20 08:14:15;;;;;;;97.10;49.20;;;;;;;2.10;90.21;100334.98;83129;1260;3011614;-73
2023/01/20 08:16:50;;;;;;;83.20;42.60;;;;;;;2.15;90.30;100338.58;82538;1260;3025719;-76
2023/01/20 08:19:29;;;;;;;58.10;30.30;;;;;;;2.18;90.29;100339.92;83111;1260;3011548;-74
2023/01/20 08:22:04;;;;;;;49.40;25.40;;;;;;;2.18;90.06;100344.23;82493;1263;3025842;-74
2023/01/20 08:24:42;;;;;;;44.70;22.70;;;;;;;2.16;90.11;100345.80;82332;1257;3026819;-74
2023/01/20 08:27:14;;;;;;;43.10;22.20;;;;;;;2.18;90.13;100339.93;82441;1258;3025851;-75
2023/01/20 08:29:49;;;;;;;42.80;22.40;;;;;;;2.20;90.17;100338.02;83841;1264;3011645;-76
2023/01/20 08:32:23;;;;;;;41.50;22.00;;;;;;;2.26;90.24;100339.38;82413;1256;3026973;-75
2023/01/20 08:34:58;;;;;;;41.40;21.80;;;;;;;2.30;90.28;100337.98;83324;1260;3011544;-75
2023/01/20 08:37:29;;;;;;;42.90;21.60;;;;;;;2.32;90.23;100341.08;83828;1260;3013041;-73
2023/01/20 08:40:06;;;;;;;43.20;20.70;;;;;;;2.32;90.05;100345.73;82551;1257;3025083;-73
2023/01/20 08:42:40;;;;;;;38.60;20.70;;;;;;;2.33;90.19;100344.34;82490;1260;3024563;-72
2023/01/20 08:45:17;;;;;;;38.60;22.60;;;;;;;2.38;90.26;100347.60;83816;1260;3011392;-75
2023/01/20 08:47:50;;;;;;;42.90;22.90;;;;;;;2.42;90.48;100353.59;82396;1260;3029195;-75
2023/01/20 08:50:22;;;;;;;44.00;22.30;;;;;;;2.47;90.44;100359.25;83841;1267;3011566;-72
2023/01/20 08:52:55;;;;;;;44.80;22.70;;;;;;;2.49;90.42;100358.89;82478;1256;3026142;-73
2023/01/20 08:55:27;;;;;;;41.30;20.90;;;;;;;2.50;90.31;100363.20;83706;1261;3011483;-74
2023/01/20 08:58:01;;;;;;;41.00;21.50;;;;;;;2.53;90.28;100363.36;82480;1260;3025605;-73
2023/01/20 09:00:35;;;;;;;39.40;21.00;;;;;;;2.57;90.06;100367.46;83238;1260;3011601;-74
2023/01/20 09:03:09;;;;;;;38.80;21.90;;;;;;;2.60;90.07;100365.71;83809;1268;3013214;-73
2023/01/20 09:05:42;;;;;;;42.80;23.10;;;;;;;2.63;90.22;100365.88;82492;1258;3025802;-76
2023/01/20 09:08:13;;;;;;;40.10;20.40;;;;;;;2.65;90.16;100365.67;83828;1261;3011414;-76
2023/01/20 09:10:47;;;;;;;39.90;21.40;;;;;;;2.69;90.32;100365.50;82506;1256;3026173;-76
2023/01/20 09:13:18;;;;;;;40.70;20.70;;;;;;;2.71;90.15;100360.31;83823;1260;3012920;-74
2023/01/20 09:15:55;;;;;;;38.70;20.60;;;;;;;2.76;90.18;100356.34;82497;1257;3025145;-75
2023/01/20 09:18:30;;;;;;;38.60;21.10;;;;;;;2.77;89.55;100360.29;82518;1263;3026276;-74
2023/01/20 09:21:07;;;;;;;38.10;19.80;;;;;;;2.80;89.96;100363.54;83814;1260;3011399;-75
2023/01/20 09:23:42;;;;;;;36.20;19.80;;;;;;;2.82;89.71;100370.77;82509;1255;3026165;-75
2023/01/20 09:26:15;;;;;;;35.90;19.30;;;;;;;2.81;89.49;100377.84;83262;1259;3012685;-74
2023/01/20 09:28:46;;;;;;;34.40;17.80;;;;;;;2.81;89.25;100376.96;83827;1270;3012797;-74
2023/01/20 09:31:21;;;;;;;32.10;18.10;;;;;;;2.83;89.26;100378.68;82521;1261;3026615;-74
2023/01/20 09:33:55;;;;;;;33.00;19.40;;;;;;;2.86;89.24;100381.42;83136;1260;3013520;-73
2023/01/20 09:36:28;;;;;;;35.50;18.40;;;;;;;2.87;88.87;100386.39;83811;1261;3011461;-74
2023/01/20 09:44:55;;;;;;;29.50;16.90;;;;;;;2.87;88.80;100403.82;82365;1263;3025759;-75
2023/01/20 09:47:30;;;;;;;31.20;18.60;;;;;;;2.91;88.76;100408.96;82518;1256;3025673;-75
2023/01/20 09:53:39;;;;;;;32.80;18.30;;;;;;;2.91;88.70;100413.78;82368;1257;3027386;-75
2023/01/20 09:56:15;;;;;;;34.20;17.30;;;;;;;2.90;88.72;100414.47;82491;1276;3025305;-76
2023/01/20 09:58:55;;;;;;;31.30;18.00;;;;;;;2.92;88.58;100415.67;83271;1259;3011457;-75
2023/01/20 10:01:34;;;;;;;31.60;17.90;;;;;;;2.95;88.74;100417.88;82514;1261;3025995;-75
2023/01/20 10:04:14;;;;;;;27.90;15.90;;;;;;;3.00;88.64;100417.16;82520;1258;3026966;-75
2023/01/20 10:07:07;;;;;;;26.80;16.30;;;;;;;3.06;88.35;100413.34;82510;1257;3026267;-75
2023/01/20 10:09:57;;;;;;;29.60;17.60;;;;;;;3.09;88.52;100411.41;82502;1259;3026672;-73
2023/01/20 10:12:36;;;;;;;30.10;16.90;;;;;;;3.14;88.55;100409.31;82528;1263;3025640;-74
2023/01/20 10:15:12;;;;;;;28.30;16.40;;;;;;;3.18;88.30;100412.74;82527;1256;3027026;-71
2023/01/20 10:17:55;;;;;;;27.90;16.40;;;;;;;3.21;87.85;100411.35;82487;1259;3026821;-74
2023/01/20 10:20:37;;;;;;;28.70;17.50;;;;;;;3.25;87.57;100405.95;82537;1261;3025738;-73
2023/01/20 10:23:21;;;;;;;33.50;19.50;;;;;;;3.24;87.43;100401.31;82529;1260;3025818;-74
2023/01/20 10:26:02;;;;;;;31.40;17.80;;;;;;;3.26;87.64;100401.13;82401;1261;3026555;-75
2023/01/20 10:28:39;;;;;;;30.50;17.60;;;;;;;3.28;87.56;100406.98;82528;1256;3025932;-75
2023/01/20 10:31:13;;;;;;;31.90;17.50;;;;;;;3.28;87.65;100407.65;83276;1259;3013369;-75
2023/01/20 10:33:48;;;;;;;31.00;17.80;;;;;;;3.30;87.64;100406.95;83793;1260;3011512;-74
2023/01/20 10:36:29;;;;;;;31.30;18.20;;;;;;;3.33;87.67;100411.92;82500;1259;3025678;-75
2023/01/20 10:39:09;;;;;;;27.40;17.00;;;;;;;3.36;87.39;100413.98;82512;1259;3026321;-74
2023/01/20 10:41:45;;;;;;;30.20;19.10;;;;;;;3.36;87.07;100416.39;82502;1260;3028019;-72
2023/01/20 10:44:17;;;;;;;33.60;19.30;;;;;;;3.33;86.71;100418.83;82522;1261;3027668;-74
2023/01/20 10:47:03;;;;;;;33.20;18.80;;;;;;;3.30;86.95;100420.76;83643;1257;3011474;-75
2023/01/20 10:50:15;;;;;;;28.80;17.40;;;;;;;3.26;86.92;100425.61;82495;1259;3026474;-73
2023/01/20 10:53:05;;;;;;;34.60;20.90;;;;;;;3.24;86.73;100432.35;82459;1256;3025297;-74
2023/01/20 10:55:45;;;;;;;32.20;18.80;;;;;;;3.20;86.80;100437.37;82441;1257;3025304;-74
2023/01/20 10:58:22;;;;;;;37.30;21.60;;;;;;;3.21;87.06;100434.79;82501;1257;3026255;-74
2023/01/20 11:00:54;;;;;;;31.00;19.00;;;;;;;3.23;87.20;100434.77;82519;1257;3026561;-74
2023/01/20 11:03:27;;;;;;;31.20;19.00;;;;;;;3.26;86.97;100430.95;83635;1257;3011509;-74
2023/01/20 11:06:00;;;;;;;30.80;19.10;;;;;;;3.30;86.97;100429.36;82415;1268;3025410;-74
2023/01/20 11:08:36;;;;;;;32.30;19.30;;;;;;;3.35;87.33;100428.82;83136;1261;3013398;-74
2023/01/20 11:11:14;;;;;;;32.60;18.90;;;;;;;3.39;87.20;100428.95;83826;1258;3011196;-75
2023/01/20 11:13:47;;;;;;;32.60;19.20;;;;;;;3.41;87.01;100427.39;82486;1259;3025753;-74
2023/01/20 11:16:23;;;;;;;30.80;18.60;;;;;;;3.42;86.66;100430.66;83816;1259;3011816;-75
2023/01/20 11:19:03;;;;;;;29.90;16.40;;;;;;;3.42;86.89;100433.06;82542;1259;3025549;-75
2023/01/20 11:21:39;;;;;;;30.50;18.20;;;;;;;3.42;86.55;100430.14;82489;1256;3026409;-74
2023/01/20 11:24:35;;;;;;;31.40;18.00;;;;;;;3.41;86.50;100431.36;83850;1259;3011527;-74
2023/01/20 11:27:16;;;;;;;31.50;18.00;;;;;;;3.42;86.44;100433.59;82347;1256;3026657;-75
2023/01/20 11:29:52;;;;;;;31.70;17.90;;;;;;;3.42;86.34;100430.83;82520;1258;3025765;-74
2023/01/20 11:32:41;;;;;;;29.80;17.10;;;;;;;3.41;86.48;100432.73;82530;1260;3026486;-74
2023/01/20 11:35:25;;;;;;;27.30;16.70;;;;;;;3.40;86.32;100442.58;82569;1261;3025753;-75
2023/01/20 11:37:59;;;;;;;30.40;17.30;;;;;;;3.41;86.22;100443.09;82387;1260;3027914;-75
2023/01/20 11:40:32;;;;;;;28.10;17.40;;;;;;;3.44;86.71;100443.05;83705;1264;3011631;-75
2023/01/20 11:43:07;;;;;;;29.70;17.30;;;;;;;3.51;86.65;100449.39;82563;1255;3026441;-75
2023/01/20 11:45:42;;;;;;;25.50;15.80;;;;;;;3.57;86.66;100457.45;82554;1254;3026285;-73
2023/01/20 11:48:20;;;;;;;26.40;16.10;;;;;;;3.61;86.18;100460.70;83896;1259;3011399;-72
2023/01/20 11:50:56;;;;;;;27.00;16.70;;;;;;;3.60;85.76;100463.80;82560;1254;3025621;-74